Time;durP1;ratioP1;P1;durP2;ratioP2;P2;SDS_P1;SDS_P2;PMS_P1;PMS_P2;Temp;Humidity;BMP_temperature;BMP_pressure;BME280_temperature;BME280_humidity;BME280_pressure;Samples;Min_cycle;Max_cycle;Signal;HPM_P1;HPM_P2
2021/11/10 00:00:53;;;;;;;9.95;5.55;;;11.30;99.30;;;;;;4931042;28;20036;-78
2021/11/10 00:03:19;;;;;;;10.85;5.90;;;11.30;99.40;;;;;;4941813;28;20102;-77
2021/11/10 00:05:46;;;;;;;10.07;5.75;;;11.30;99.50;;;;;;4934598;28;20497;-78
2021/11/10 00:08:12;;;;;;;7.88;5.47;;;11.30;99.40;;;;;;4938671;28;20082;-80
2021/11/10 00:10:37;;;;;;;9.52;5.78;;;11.40;99.50;;;;;;4951449;28;20220;-77
2021/11/10 00:13:17;;;;;;;6.70;5.32;;;11.40;99.50;;;;;;4946964;28;20027;-78
2021/11/10 00:15:44;;;;;;;8.32;5.20;;;11.40;99.50;;;;;;4945920;28;20053;-78
2021/11/10 00:18:10;;;;;;;7.07;5.10;;;11.40;99.60;;;;;;4943419;28;20032;-78
2021/11/10 00:20:36;;;;;;;7.57;5.53;;;11.40;99.50;;;;;;4947090;28;20056;-79
2021/11/10 00:23:02;;;;;;;7.45;5.63;;;11.50;99.50;;;;;;4940297;28;20141;-79
2021/11/10 00:25:28;;;;;;;9.20;5.10;;;11.50;99.80;;;;;;4947523;29;20036;-79
2021/11/10 00:27:53;;;;;;;10.77;5.60;;;11.50;99.40;;;;;;4940756;28;20032;-79
2021/11/10 00:30:19;;;;;;;15.30;5.75;;;11.60;99.20;;;;;;4949128;28;20031;-79
2021/11/10 00:32:45;;;;;;;8.98;5.28;;;11.60;99.40;;;;;;4945536;28;20055;-80
2021/11/10 00:35:10;;;;;;;8.98;5.45;;;11.60;99.30;;;;;;4935721;28;20040;-80
2021/11/10 00:37:36;;;;;;;8.55;5.85;;;11.70;99.00;;;;;;4938470;28;20062;-79
2021/11/10 00:40:05;;;;;;;6.13;5.22;;;11.70;98.90;;;;;;4945453;28;20035;-80
2021/11/10 00:42:31;;;;;;;7.50;5.88;;;11.70;99.30;;;;;;4938734;28;20024;-79
2021/11/10 00:44:56;;;;;;;7.95;4.97;;;11.70;99.00;;;;;;4937531;28;20401;-80
2021/11/10 00:47:22;;;;;;;9.85;5.38;;;11.70;99.00;;;;;;4936170;28;20024;-79
2021/11/10 00:49:48;;;;;;;8.05;5.47;;;11.80;99.00;;;;;;4939949;28;20483;-79
2021/11/10 00:52:13;;;;;;;8.38;5.80;;;11.80;98.90;;;;;;4934588;28;20038;-79
2021/11/10 00:54:39;;;;;;;10.88;6.07;;;11.80;98.80;;;;;;4939867;28;20126;-79
2021/11/10 00:57:05;;;;;;;10.10;5.47;;;11.80;98.70;;;;;;4936707;28;20039;-79
2021/11/10 00:59:31;;;;;;;7.50;5.18;;;11.80;98.60;;;;;;4936211;28;20090;-79
2021/11/10 01:01:57;;;;;;;8.05;5.95;;;11.70;98.90;;;;;;4936735;28;20035;-79
2021/11/10 01:04:23;;;;;;;9.23;5.43;;;11.70;99.20;;;;;;4940816;28;20039;-79
2021/11/10 01:06:48;;;;;;;10.13;5.80;;;11.60;99.10;;;;;;4932758;28;20106;-79
2021/11/10 01:09:17;;;;;;;8.38;6.13;;;11.60;99.60;;;;;;4939722;28;20039;-79
2021/11/10 01:11:47;;;;;;;11.35;5.85;;;11.50;99.40;;;;;;4949343;28;20023;-79
2021/11/10 01:14:15;;;;;;;9.68;5.88;;;11.50;99.50;;;;;;4941608;28;20031;-80
2021/11/10 01:16:40;;;;;;;9.68;5.90;;;11.40;99.80;;;;;;4935672;28;20382;-77
2021/11/10 01:19:07;;;;;;;8.52;5.53;;;11.40;99.90;;;;;;4941082;28;20020;-78
2021/11/10 01:21:32;;;;;;;8.75;5.28;;;11.40;99.90;;;;;;4943757;28;20478;-79
2021/11/10 01:23:58;;;;;;;7.57;5.55;;;11.30;99.90;;;;;;4941186;28;20104;-79
2021/11/10 01:26:24;;;;;;;8.52;5.38;;;11.30;99.90;;;;;;4943635;28;20085;-79
2021/11/10 01:28:50;;;;;;;6.82;5.43;;;11.20;99.90;;;;;;4937671;28;20032;-78
2021/11/10 01:31:16;;;;;;;7.32;5.57;;;11.20;99.90;;;;;;4931789;28;20118;-78
2021/11/10 01:33:42;;;;;;;8.68;5.78;;;11.20;99.90;;;;;;4958111;28;20121;-78
2021/11/10 01:36:08;;;;;;;8.00;5.63;;;11.20;99.90;;;;;;4934105;28;20505;-78
2021/11/10 01:38:34;;;;;;;9.23;5.90;;;11.10;99.90;;;;;;4935933;28;20131;-78
2021/11/10 01:41:00;;;;;;;7.95;5.88;;;11.10;99.90;;;;;;4931526;28;20035;-78
2021/11/10 01:43:26;;;;;;;8.52;5.18;;;11.10;99.90;;;;;;4934298;28;20036;-78
2021/11/10 01:45:56;;;;;;;10.05;5.78;;;11.00;99.90;;;;;;4951971;28;20579;-78
2021/11/10 01:48:22;;;;;;;12.65;6.20;;;11.10;99.90;;;;;;4937124;28;20475;-78
2021/11/10 01:50:49;;;;;;;8.55;5.82;;;11.00;99.90;;;;;;4950431;28;20031;-78
2021/11/10 01:53:15;;;;;;;7.78;5.25;;;11.10;99.90;;;;;;4937153;28;20032;-78
2021/11/10 01:55:41;;;;;;;9.13;5.32;;;11.10;99.90;;;;;;4950470;28;20034;-78
2021/11/10 01:58:07;;;;;;;7.90;5.63;;;11.20;99.90;;;;;;4937260;28;20027;-77
2021/11/10 02:00:39;;;;;;;7.57;5.15;;;11.30;99.90;;;;;;4946847;28;20027;-77
2021/11/10 02:03:06;;;;;;;6.22;5.03;;;11.30;99.90;;;;;;4939225;28;20031;-78
2021/11/10 02:05:32;;;;;;;5.70;5.03;;;11.40;99.90;;;;;;4935693;28;20038;-77
2021/11/10 02:07:58;;;;;;;9.95;5.53;;;11.40;99.90;;;;;;4943534;28;20019;-77
2021/11/10 02:10:25;;;;;;;7.45;5.10;;;11.40;99.90;;;;;;4942527;28;20038;-79
2021/11/10 02:12:53;;;;;;;14.40;5.65;;;11.40;99.90;;;;;;4945001;28;20031;-79
2021/11/10 02:15:20;;;;;;;8.30;5.47;;;11.40;99.90;;;;;;4950396;28;20126;-78
2021/11/10 02:17:55;;;;;;;6.90;5.32;;;11.50;99.90;;;;;;4941492;28;20043;-78
2021/11/10 02:20:22;;;;;;;11.00;5.55;;;11.40;99.90;;;;;;4946304;28;20032;-78
2021/11/10 02:22:51;;;;;;;6.55;5.25;;;11.40;99.90;;;;;;4944137;28;20066;-78
2021/11/10 02:25:17;;;;;;;7.68;5.28;;;11.40;99.90;;;;;;4937112;28;20082;-78
2021/11/10 02:27:43;;;;;;;9.85;5.13;;;11.40;99.90;;;;;;4934998;28;20483;-78
2021/11/10 02:30:12;;;;;;;9.43;5.68;;;11.40;99.90;;;;;;4944749;28;20074;-78
2021/11/10 02:32:44;;;;;;;9.80;5.13;;;11.50;99.90;;;;;;4942317;28;20047;-78
2021/11/10 02:35:17;;;;;;;8.93;5.22;;;11.40;99.90;;;;;;4932384;28;20031;-79
2021/11/10 02:37:44;;;;;;;8.70;5.47;;;11.50;99.90;;;;;;4936925;28;20028;-80
2021/11/10 02:40:10;;;;;;;7.38;4.88;;;11.50;99.90;;;;;;4930846;28;20081;-79
2021/11/10 02:42:36;;;;;;;5.97;5.25;;;11.50;99.90;;;;;;4936979;28;20023;-78
2021/11/10 02:45:02;;;;;;;7.28;5.43;;;11.50;99.90;;;;;;4937541;28;20046;-78
2021/11/10 02:47:28;;;;;;;8.02;5.38;;;11.50;99.90;;;;;;4938303;28;20043;-78
2021/11/10 02:49:54;;;;;;;7.28;5.43;;;11.50;99.90;;;;;;4942682;28;20032;-77
2021/11/10 02:52:20;;;;;;;5.95;5.18;;;11.50;99.90;;;;;;4947467;28;20022;-78
2021/11/10 02:54:53;;;;;;;10.38;5.65;;;11.50;99.90;;;;;;4931807;28;20043;-79
2021/11/10 02:57:19;;;;;;;;;;;11.50;99.90;;;;;;4935903;28;20062;-78
2021/11/10 02:59:45;;;;;;;8.40;5.38;;;11.40;99.90;;;;;;4939780;28;20067;-78
2021/11/10 03:02:12;;;;;;;10.52;5.63;;;11.40;99.90;;;;;;4937673;28;20032;-78
2021/11/10 03:04:44;;;;;;;8.98;5.32;;;11.40;99.90;;;;;;4942217;28;20114;-78
2021/11/10 03:07:11;;;;;;;10.00;5.63;;;11.40;99.90;;;;;;4943519;28;20122;-79
2021/11/10 03:09:37;;;;;;;8.00;5.10;;;11.40;99.90;;;;;;4937597;28;20039;-79
2021/11/10 03:12:05;;;;;;;8.77;5.35;;;11.40;99.90;;;;;;4940645;28;20393;-80
2021/11/10 03:14:33;;;;;;;6.35;4.82;;;11.40;99.90;;;;;;4945624;28;20505;-79
2021/11/10 03:16:59;;;;;;;6.72;5.38;;;11.40;99.90;;;;;;4945972;28;20142;-79
2021/11/10 03:19:26;;;;;;;7.03;5.22;;;11.40;99.90;;;;;;4936858;28;20036;-79
2021/11/10 03:21:52;;;;;;;8.30;4.95;;;11.40;99.90;;;;;;4933096;28;20032;-79
2021/11/10 03:24:18;;;;;;;6.93;5.00;;;11.40;99.90;;;;;;4941545;28;20023;-78
2021/11/10 03:26:44;;;;;;;9.05;5.07;;;11.40;99.90;;;;;;4932777;28;20047;-79
2021/11/10 03:29:10;;;;;;;8.98;4.90;;;11.40;99.90;;;;;;4933294;28;20036;-80
2021/11/10 03:31:38;;;;;;;8.18;4.70;;;11.40;99.90;;;;;;4935961;28;20090;-78
2021/11/10 03:34:05;;;;;;;8.20;5.10;;;11.40;99.90;;;;;;4936803;28;20461;-79
2021/11/10 03:36:32;;;;;;;7.18;5.15;;;11.40;99.90;;;;;;4930712;28;20138;-79
2021/11/10 03:38:58;;;;;;;6.30;4.90;;;11.40;99.90;;;;;;4936265;28;20031;-79
2021/11/10 03:41:25;;;;;;;10.40;4.95;;;11.40;99.90;;;;;;4947517;28;20028;-79
2021/11/10 03:43:51;;;;;;;10.63;5.63;;;11.40;99.90;;;;;;4939555;28;20020;-79
2021/11/10 03:46:18;;;;;;;7.63;5.35;;;11.30;99.90;;;;;;4941642;28;20032;-79
2021/11/10 03:48:44;;;;;;;7.55;5.60;;;11.30;99.90;;;;;;4936151;28;20162;-80
2021/11/10 03:51:10;;;;;;;10.20;5.13;;;11.30;99.90;;;;;;4929876;28;20028;-80
2021/11/10 03:53:36;;;;;;;6.05;4.80;;;11.40;99.90;;;;;;4940369;28;20028;-78
2021/11/10 03:56:02;;;;;;;6.30;5.00;;;11.30;99.90;;;;;;4929505;28;20047;-78
2021/11/10 03:58:28;;;;;;;9.85;4.72;;;11.40;99.90;;;;;;4933436;28;20028;-79
2021/11/10 04:00:53;;;;;;;7.70;4.85;;;11.40;99.90;;;;;;4949703;28;20516;-79
2021/11/10 04:03:19;;;;;;;7.70;4.70;;;11.40;99.90;;;;;;4938618;28;20028;-79
2021/11/10 04:05:45;;;;;;;7.57;4.90;;;11.40;99.90;;;;;;4949640;28;20031;-79
2021/11/10 04:08:11;;;;;;;9.88;4.85;;;11.50;99.90;;;;;;4935941;28;20030;-79
2021/11/10 04:10:37;;;;;;;7.32;5.00;;;11.50;99.90;;;;;;4930869;28;20055;-78
2021/11/10 04:13:04;;;;;;;5.40;4.40;;;11.50;99.90;;;;;;4931143;28;20526;-78
2021/11/10 04:15:31;;;;;;;6.82;5.03;;;11.50;99.90;;;;;;4938532;28;20040;-79
2021/11/10 04:17:57;;;;;;;5.57;4.47;;;11.40;99.90;;;;;;4936568;28;20036;-78
2021/11/10 04:20:23;;;;;;;7.00;5.10;;;11.40;99.90;;;;;;4934224;28;20082;-78
2021/11/10 04:22:48;;;;;;;5.88;4.80;;;11.40;99.90;;;;;;4936748;28;20104;-78
2021/11/10 04:25:15;;;;;;;7.15;5.60;;;11.30;99.90;;;;;;4944060;28;20493;-78
2021/11/10 04:27:41;;;;;;;8.38;5.00;;;11.30;99.90;;;;;;4939208;28;20024;-78
2021/11/10 04:30:07;;;;;;;8.02;5.20;;;11.20;99.90;;;;;;4944133;28;20033;-78
2021/11/10 04:32:33;;;;;;;6.47;5.40;;;11.20;99.90;;;;;;4940246;28;20028;-80
2021/11/10 04:34:59;;;;;;;7.68;5.35;;;11.10;99.90;;;;;;4943216;28;20028;-82
2021/11/10 04:37:25;;;;;;;8.48;5.32;;;11.10;99.90;;;;;;4944464;28;20379;-81
2021/11/10 04:39:51;;;;;;;9.05;5.28;;;11.00;99.90;;;;;;4930716;28;20371;-81
2021/11/10 04:42:17;;;;;;;9.00;5.28;;;11.00;99.90;;;;;;4934600;28;20085;-80
2021/11/10 04:44:46;;;;;;;12.77;5.10;;;11.00;99.90;;;;;;4933634;28;20035;-82
2021/11/10 04:47:12;;;;;;;9.13;5.65;;;11.00;99.90;;;;;;4935333;28;20039;-81
2021/11/10 04:49:39;;;;;;;7.63;5.07;;;11.00;99.90;;;;;;4934488;28;20027;-81
2021/11/10 04:52:05;;;;;;;6.07;5.05;;;11.00;99.90;;;;;;4936692;28;20493;-81
2021/11/10 04:54:31;;;;;;;7.40;4.90;;;11.00;99.90;;;;;;4932253;28;20482;-81
2021/11/10 04:57:01;;;;;;;7.93;5.10;;;11.00;99.90;;;;;;4936268;28;20053;-81
2021/11/10 04:59:27;;;;;;;8.68;5.10;;;11.00;99.90;;;;;;4934980;28;20058;-81
2021/11/10 05:04:32;;;;;;;7.90;5.07;;;10.90;99.90;;;;;;4944167;28;20023;-81
2021/11/10 05:06:58;;;;;;;9.00;4.90;;;11.00;99.90;;;;;;4949310;28;20031;-82
2021/11/10 05:09:24;;;;;;;7.68;5.07;;;11.00;99.90;;;;;;4945134;28;20043;-81
2021/11/10 05:11:50;;;;;;;7.60;4.82;;;10.90;99.90;;;;;;4948600;28;20398;-81
2021/11/10 05:14:16;;;;;;;8.02;5.53;;;10.90;99.90;;;;;;4941183;28;20039;-81
2021/11/10 05:16:41;;;;;;;11.15;5.60;;;10.90;99.90;;;;;;4949247;28;20089;-81
2021/11/10 05:19:07;;;;;;;7.85;4.63;;;10.90;99.90;;;;;;4938891;28;20031;-82
2021/11/10 05:21:33;;;;;;;8.35;5.20;;;10.90;99.90;;;;;;4948687;28;20055;-82
2021/11/10 05:23:59;;;;;;;7.78;5.05;;;10.90;99.90;;;;;;4939548;28;20023;-80
2021/11/10 05:26:25;;;;;;;8.43;4.70;;;10.90;99.90;;;;;;4943756;28;20127;-80
2021/11/10 05:28:50;;;;;;;7.35;4.82;;;10.90;99.90;;;;;;4938690;28;20031;-81
2021/11/10 05:31:17;;;;;;;6.38;4.82;;;11.00;99.90;;;;;;4935085;28;20032;-80
2021/11/10 05:33:43;;;;;;;6.50;4.38;;;11.00;99.90;;;;;;4958181;28;20011;-81
2021/11/10 05:36:09;;;;;;;6.45;4.80;;;11.00;99.90;;;;;;4932706;28;20052;-81
2021/11/10 05:38:35;;;;;;;6.32;4.90;;;11.10;99.90;;;;;;4955208;28;20028;-81
2021/11/10 05:41:01;;;;;;;6.50;4.57;;;11.10;99.90;;;;;;4938060;28;20035;-82
2021/11/10 05:43:27;;;;;;;7.55;4.80;;;11.10;99.90;;;;;;4935894;28;20028;-82
2021/11/10 05:45:53;;;;;;;6.72;4.55;;;11.10;99.90;;;;;;4932315;28;20028;-82
2021/11/10 05:48:18;;;;;;;7.22;4.80;;;11.20;99.90;;;;;;4941379;28;20031;-82
2021/11/10 05:50:45;;;;;;;8.40;4.95;;;11.20;99.90;;;;;;4933848;28;20039;-82
2021/11/10 05:53:12;;;;;;;5.38;4.88;;;11.30;99.90;;;;;;4936252;28;20085;-81
2021/11/10 05:55:41;;;;;;;5.20;4.70;;;11.30;99.90;;;;;;4939565;28;20047;-82
2021/11/10 05:58:07;;;;;;;8.23;5.45;;;11.30;99.90;;;;;;4943149;28;20024;-83
2021/11/10 06:00:33;;;;;;;8.75;5.20;;;11.30;99.90;;;;;;4936960;28;20063;-81
2021/11/10 06:02:59;;;;;;;7.78;4.90;;;11.40;99.90;;;;;;4933903;28;20502;-81
2021/11/10 06:05:25;;;;;;;7.28;5.18;;;11.40;99.90;;;;;;4941474;28;20122;-80
2021/11/10 06:07:51;;;;;;;7.30;4.63;;;11.40;99.90;;;;;;4939539;28;20036;-81
2021/11/10 06:10:18;;;;;;;6.82;4.88;;;11.40;99.90;;;;;;4936438;28;20123;-82
2021/11/10 06:12:45;;;;;;;7.47;4.80;;;11.50;99.90;;;;;;4935196;28;20077;-82
2021/11/10 06:15:13;;;;;;;9.23;4.97;;;11.50;99.90;;;;;;4937303;28;20044;-85
2021/11/10 06:17:39;;;;;;;6.93;5.15;;;11.50;99.90;;;;;;4937072;28;20038;-85
2021/11/10 06:20:07;;;;;;;8.80;5.28;;;11.50;99.90;;;;;;4932381;28;20028;-83
2021/11/10 06:22:33;;;;;;;5.88;4.68;;;11.50;99.90;;;;;;4935711;28;20023;-84
2021/11/10 06:24:59;;;;;;;7.15;4.85;;;11.50;99.90;;;;;;4930121;28;20101;-81
2021/11/10 06:27:25;;;;;;;7.72;5.18;;;11.50;99.90;;;;;;4936714;28;20482;-85
2021/11/10 06:29:52;;;;;;;5.65;4.85;;;11.50;99.90;;;;;;4933412;28;20471;-83
2021/11/10 06:32:18;;;;;;;7.82;5.10;;;11.60;99.90;;;;;;4933150;28;20032;-79
2021/11/10 06:34:44;;;;;;;7.20;5.10;;;11.60;99.90;;;;;;4937578;28;20363;-80
2021/11/10 06:37:10;;;;;;;6.32;5.10;;;11.70;99.90;;;;;;4931307;28;20040;-79
2021/11/10 06:39:35;;;;;;;8.70;5.50;;;11.60;99.90;;;;;;4938532;28;20016;-81
2021/11/10 06:42:01;;;;;;;5.60;4.80;;;11.70;99.90;;;;;;4932504;28;20117;-79
2021/11/10 06:44:27;;;;;;;8.93;5.22;;;11.80;99.90;;;;;;4938807;28;20110;-80
2021/11/10 06:46:53;;;;;;;10.50;5.13;;;11.80;99.90;;;;;;4932738;28;20103;-80
2021/11/10 06:49:19;;;;;;;7.10;5.32;;;11.80;99.90;;;;;;4938434;28;20555;-80
2021/11/10 06:51:45;;;;;;;7.30;4.97;;;11.90;99.90;;;;;;4933049;28;20054;-82
2021/11/10 06:54:13;;;;;;;7.63;4.90;;;12.00;99.90;;;;;;4946563;28;20053;-79
2021/11/10 06:56:39;;;;;;;9.23;5.68;;;12.00;99.90;;;;;;4947681;28;20067;-80
2021/11/10 06:59:05;;;;;;;8.48;5.65;;;12.10;99.90;;;;;;4941525;28;20031;-81
2021/11/10 07:01:30;;;;;;;12.82;5.40;;;12.20;99.90;;;;;;4930740;28;20035;-81
2021/11/10 07:03:56;;;;;;;9.65;5.55;;;12.20;99.90;;;;;;4940960;28;20395;-80
2021/11/10 07:06:22;;;;;;;6.75;5.50;;;12.30;99.90;;;;;;4931958;28;20032;-82
2021/11/10 07:08:48;;;;;;;8.48;5.47;;;12.40;99.90;;;;;;4941816;28;20027;-80
2021/11/10 07:11:13;;;;;;;9.57;5.70;;;12.40;99.90;;;;;;4931397;28;20030;-80
2021/11/10 07:13:40;;;;;;;11.18;5.50;;;12.40;99.90;;;;;;4942383;28;20367;-80
2021/11/10 07:16:06;;;;;;;10.23;5.72;;;12.40;99.90;;;;;;4931332;28;20147;-79
2021/11/10 07:18:32;;;;;;;10.65;5.50;;;12.50;99.90;;;;;;4941912;28;20110;-79
2021/11/10 07:20:59;;;;;;;7.97;5.47;;;12.50;99.90;;;;;;4931844;28;20039;-80
2021/11/10 07:23:24;;;;;;;6.35;5.13;;;12.50;99.90;;;;;;4935561;28;20068;-80
2021/11/10 07:25:50;;;;;;;8.10;5.00;;;12.50;99.90;;;;;;4947441;28;20078;-80
2021/11/10 07:28:17;;;;;;;9.27;5.63;;;12.40;99.90;;;;;;4943240;28;20112;-79
2021/11/10 07:30:45;;;;;;;7.15;5.30;;;12.50;99.90;;;;;;4928711;28;20127;-80
2021/11/10 07:33:11;;;;;;;11.60;6.18;;;12.50;99.90;;;;;;4936957;28;20066;-81
2021/11/10 07:35:37;;;;;;;7.60;5.72;;;12.60;99.90;;;;;;4929757;28;20068;-80
2021/11/10 07:38:04;;;;;;;9.30;5.70;;;12.60;99.90;;;;;;4935290;28;20039;-79
2021/11/10 07:40:30;;;;;;;12.00;5.82;;;12.60;99.90;;;;;;4929055;28;20032;-81
2021/11/10 07:42:56;;;;;;;12.18;5.90;;;12.70;99.90;;;;;;4934718;28;20042;-80
2021/11/10 07:45:32;;;;;;;8.52;5.72;;;12.70;99.90;;;;;;4930272;28;20036;-81
2021/11/10 07:47:59;;;;;;;8.73;6.13;;;12.80;99.90;;;;;;4935070;29;20073;-79
2021/11/10 07:50:26;;;;;;;10.07;5.57;;;12.90;99.90;;;;;;4930794;28;20700;-79
2021/11/10 07:52:52;;;;;;;10.68;5.93;;;13.00;99.90;;;;;;4932918;28;20039;-77
2021/11/10 07:55:19;;;;;;;13.20;6.45;;;13.20;99.90;;;;;;4931341;28;20106;-79
2021/11/10 07:57:45;;;;;;;7.28;5.95;;;13.20;99.90;;;;;;4940961;28;20049;-78
2021/11/10 08:00:15;;;;;;;7.40;5.38;;;13.30;99.90;;;;;;4932540;28;20681;-78
2021/11/10 08:02:42;;;;;;;9.48;5.82;;;13.40;99.90;;;;;;4932388;28;20489;-78
2021/11/10 08:05:10;;;;;;;8.52;5.38;;;13.40;99.90;;;;;;4932226;28;20115;-78
2021/11/10 08:07:36;;;;;;;9.10;5.43;;;13.40;99.90;;;;;;4932055;28;20035;-77
2021/11/10 08:10:02;;;;;;;7.97;5.95;;;13.50;99.90;;;;;;4933407;28;20032;-78
2021/11/10 08:12:31;;;;;;;10.20;5.40;;;13.60;99.90;;;;;;4930945;28;20161;-78
2021/11/10 08:14:57;;;;;;;7.47;5.65;;;13.70;99.80;;;;;;4941456;28;20039;-78
2021/11/10 08:17:22;;;;;;;8.20;5.28;;;13.80;99.70;;;;;;4944441;28;20089;-77
2021/11/10 08:19:48;;;;;;;6.93;5.30;;;13.80;99.40;;;;;;4941130;28;20027;-79
2021/11/10 08:22:14;;;;;;;10.77;5.65;;;14.00;99.40;;;;;;4943061;28;20086;-78
2021/11/10 08:24:40;;;;;;;9.23;5.30;;;14.10;99.20;;;;;;4937349;28;20386;-78
2021/11/10 08:27:06;;;;;;;8.68;5.35;;;14.10;99.10;;;;;;4940646;28;20027;-76
2021/11/10 08:29:32;;;;;;;16.90;6.25;;;14.20;99.20;;;;;;4938722;28;20067;-78
2021/11/10 08:31:58;;;;;;;5.90;5.00;;;14.20;98.70;;;;;;4932333;28;20055;-78
2021/11/10 08:34:24;;;;;;;8.57;5.85;;;14.20;98.80;;;;;;4944167;28;20228;-77
2021/11/10 08:36:49;;;;;;;10.52;6.05;;;14.30;99.10;;;;;;4947000;28;20043;-77
2021/11/10 08:39:15;;;;;;;7.00;5.60;;;14.30;98.60;;;;;;4937265;28;20024;-78
2021/11/10 08:41:43;;;;;;;10.45;5.43;;;14.40;98.50;;;;;;4932218;28;20120;-77
2021/11/10 08:44:09;;;;;;;7.88;5.90;;;14.40;98.20;;;;;;4938826;28;20024;-78
2021/11/10 08:46:35;;;;;;;8.00;5.53;;;14.40;98.20;;;;;;4930922;28;20034;-77
2021/11/10 08:49:01;;;;;;;7.88;5.70;;;14.40;98.00;;;;;;4939968;28;20050;-77
2021/11/10 08:51:27;;;;;;;12.40;5.78;;;14.50;98.20;;;;;;4929215;28;20386;-78
2021/11/10 08:53:54;;;;;;;12.10;5.30;;;14.70;97.90;;;;;;4940243;28;20077;-78
2021/11/10 08:56:20;;;;;;;11.32;5.47;;;14.70;97.60;;;;;;4929711;28;20027;-79
2021/11/10 08:58:46;;;;;;;6.88;5.20;;;14.90;97.50;;;;;;4939197;28;20065;-78
2021/11/10 09:01:14;;;;;;;8.27;5.43;;;15.00;97.10;;;;;;4930262;28;20035;-77
2021/11/10 09:03:40;;;;;;;10.13;5.50;;;15.10;96.80;;;;;;4939108;28;20039;-78
2021/11/10 09:06:06;;;;;;;7.95;5.38;;;15.10;96.70;;;;;;4930116;28;20034;-78
2021/11/10 09:08:32;;;;;;;6.47;5.07;;;15.10;96.60;;;;;;4940462;28;20445;-78
2021/11/10 09:10:59;;;;;;;11.25;5.50;;;15.20;96.90;;;;;;4932353;28;20023;-78
2021/11/10 09:13:27;;;;;;;8.32;5.68;;;15.30;96.90;;;;;;4942590;28;20047;-78
2021/11/10 09:15:53;;;;;;;7.63;5.10;;;15.50;96.10;;;;;;4928407;28;20051;-78
2021/11/10 09:18:19;;;;;;;12.43;5.35;;;15.50;95.90;;;;;;4939655;28;20031;-78
2021/11/10 09:20:45;;;;;;;9.00;4.90;;;15.50;95.90;;;;;;4930368;28;20038;-78
2021/11/10 09:23:13;;;;;;;8.48;5.05;;;15.60;95.70;;;;;;4938276;28;20089;-78
2021/11/10 09:25:39;;;;;;;8.48;5.50;;;15.70;95.50;;;;;;4930374;28;20078;-78
2021/11/10 09:28:10;;;;;;;7.88;5.32;;;15.70;95.50;;;;;;4937814;28;20031;-78
2021/11/10 09:30:39;;;;;;;9.98;5.28;;;15.90;95.20;;;;;;4931509;28;20094;-78
2021/11/10 09:33:06;;;;;;;7.53;5.47;;;15.90;94.50;;;;;;4937822;28;20037;-78
2021/11/10 09:35:32;;;;;;;5.65;4.50;;;15.90;94.90;;;;;;4930315;28;20062;-79
2021/11/10 09:37:59;;;;;;;6.57;5.38;;;15.80;94.90;;;;;;4936596;28;20031;-77
2021/11/10 09:40:30;;;;;;;9.25;5.15;;;15.80;94.80;;;;;;4931274;28;20024;-78
2021/11/10 09:42:59;;;;;;;9.07;5.38;;;15.70;94.40;;;;;;4936538;28;20042;-78
2021/11/10 09:45:26;;;;;;;8.00;5.40;;;15.70;94.80;;;;;;4932577;28;20515;-78
2021/11/10 09:47:52;;;;;;;9.18;5.30;;;15.60;94.90;;;;;;4936048;28;20093;-79
2021/11/10 09:50:21;;;;;;;12.15;5.60;;;15.60;94.90;;;;;;4931670;28;20035;-79
2021/11/10 09:52:48;;;;;;;9.38;5.20;;;15.60;95.00;;;;;;4939832;28;20028;-77
2021/11/10 09:55:18;;;;;;;7.13;5.47;;;15.80;94.80;;;;;;4933712;28;20059;-78
2021/11/10 09:57:45;;;;;;;7.45;5.13;;;15.90;94.40;;;;;;4933618;28;20090;-78
2021/11/10 10:00:15;;;;;;;7.13;5.03;;;15.90;94.40;;;;;;4943437;28;20024;-81
2021/11/10 10:02:45;;;;;;;5.93;5.05;;;16.00;94.00;;;;;;4941358;28;20207;-78
2021/11/10 10:05:11;;;;;;;9.55;5.80;;;16.10;94.00;;;;;;4934130;28;20050;-78
2021/11/10 10:07:39;;;;;;;7.45;5.35;;;16.20;93.70;;;;;;4933730;28;20032;-77
2021/11/10 10:10:05;;;;;;;10.15;5.45;;;16.30;93.20;;;;;;4933415;28;20040;-79
2021/11/10 10:12:31;;;;;;;10.23;5.78;;;16.50;93.00;;;;;;4931648;28;20027;-79
2021/11/10 10:14:58;;;;;;;7.93;5.00;;;16.50;92.80;;;;;;4935641;28;20039;-78
2021/11/10 10:17:39;;;;;;;7.47;5.32;;;16.70;92.40;;;;;;4930981;28;20236;-78
2021/11/10 10:20:20;;;;;;;10.00;6.32;;;16.80;92.10;;;;;;4933489;28;20031;-77
2021/11/10 10:22:48;;;;;;;11.05;5.43;;;17.00;92.20;;;;;;4938470;28;20553;-79
2021/11/10 10:25:14;;;;;;;5.57;4.50;;;17.10;91.70;;;;;;4933288;28;20394;-79
2021/11/10 10:27:52;;;;;;;7.40;5.07;;;17.30;91.40;;;;;;4933403;28;20035;-78
2021/11/10 10:30:24;;;;;;;10.63;5.28;;;17.40;90.70;;;;;;4932806;28;20506;-78
2021/11/10 10:33:09;;;;;;;7.18;5.05;;;17.40;90.80;;;;;;4934035;28;20130;-78
2021/11/10 10:35:54;;;;;;;7.07;5.10;;;17.30;91.10;;;;;;4944411;28;20043;-79
2021/11/10 10:38:27;;;;;;;7.57;5.20;;;17.20;90.60;;;;;;4936086;28;20048;-78
2021/11/10 10:40:57;;;;;;;7.50;5.35;;;17.00;90.80;;;;;;4928686;28;20018;-81
2021/11/10 10:43:27;;;;;;;9.27;5.68;;;16.90;91.00;;;;;;4938906;28;20156;-79
2021/11/10 10:45:56;;;;;;;7.90;4.70;;;16.70;91.20;;;;;;4928702;28;20052;-80
2021/11/10 10:48:27;;;;;;;7.95;4.68;;;16.60;91.50;;;;;;4933590;28;20042;-78
2021/11/10 10:51:19;;;;;;;10.10;5.03;;;16.70;91.80;;;;;;4927121;28;20031;-78
2021/11/10 10:53:48;;;;;;;6.20;4.63;;;17.00;91.20;;;;;;4940839;28;20044;-78
2021/11/10 10:56:16;;;;;;;6.38;5.07;;;17.20;91.00;;;;;;4926649;28;20047;-77
2021/11/10 10:58:43;;;;;;;6.30;4.80;;;17.60;90.50;;;;;;4939010;28;20122;-79
2021/11/10 11:01:22;;;;;;;8.48;4.63;;;17.90;89.10;;;;;;4927201;28;20046;-78
2021/11/10 11:04:17;;;;;;;9.27;4.75;;;18.00;89.80;;;;;;4936324;28;20027;-79
2021/11/10 11:06:46;;;;;;;6.32;4.57;;;18.10;88.80;;;;;;4945048;28;20398;-78
2021/11/10 11:09:42;;;;;;;7.70;5.00;;;18.10;88.60;;;;;;4936015;28;20068;-77
2021/11/10 11:12:29;;;;;;;7.57;5.00;;;18.10;88.00;;;;;;4928551;28;20383;-78
2021/11/10 11:17:41;;;;;;;7.68;5.10;;;17.70;88.30;;;;;;4941001;28;20070;-77
2021/11/10 11:20:11;;;;;;;6.55;5.00;;;17.80;88.80;;;;;;4933562;28;20034;-78
2021/11/10 11:22:45;;;;;;;6.72;4.97;;;17.80;89.00;;;;;;4932089;28;20036;-77
2021/11/10 11:25:20;;;;;;;6.57;4.28;;;18.00;88.40;;;;;;4932746;28;20097;-78
2021/11/10 11:27:55;;;;;;;5.45;4.45;;;18.20;88.30;;;;;;4933813;28;20497;-81
2021/11/10 11:30:23;;;;;;;8.30;4.88;;;18.40;86.10;;;;;;4930148;28;20031;-77
2021/11/10 11:32:51;;;;;;;7.60;4.25;;;18.40;86.30;;;;;;4933925;28;20058;-80
2021/11/10 11:35:32;;;;;;;8.32;4.90;;;18.40;85.80;;;;;;4931557;28;20039;-79
2021/11/10 11:38:08;;;;;;;7.43;4.25;;;18.30;85.60;;;;;;4935278;28;20089;-78
2021/11/10 11:40:36;;;;;;;6.70;4.78;;;18.10;86.40;;;;;;4929626;28;20043;-78
2021/11/10 11:43:04;;;;;;;6.07;4.70;;;17.80;86.60;;;;;;4933095;28;20036;-78
2021/11/10 11:45:34;;;;;;;9.45;4.88;;;17.70;87.10;;;;;;4944700;28;20024;-79
2021/11/10 11:48:02;;;;;;;6.97;5.00;;;17.60;87.10;;;;;;4940041;28;20034;-79
2021/11/10 11:50:29;;;;;;;8.30;5.35;;;17.70;87.30;;;;;;4946092;28;20053;-77
2021/11/10 11:52:55;;;;;;;8.30;5.82;;;18.00;87.70;;;;;;4944104;28;20049;-78
2021/11/10 11:55:33;;;;;;;9.15;5.22;;;18.30;86.60;;;;;;4934344;28;20218;-78
2021/11/10 11:58:08;;;;;;;7.78;4.70;;;18.60;85.30;;;;;;4938394;28;20269;-78
2021/11/10 12:00:41;;;;;;;10.18;4.60;;;18.90;84.50;;;;;;4932387;28;20074;-79
2021/11/10 12:03:26;;;;;;;5.10;4.47;;;19.50;83.40;;;;;;4936192;28;20027;-78
2021/11/10 12:05:53;;;;;;;8.00;4.28;;;20.40;80.00;;;;;;4930852;28;20063;-78
2021/11/10 12:08:43;;;;;;;6.68;4.70;;;20.90;77.20;;;;;;4939693;28;20043;-78
2021/11/10 12:11:28;;;;;;;6.18;4.28;;;21.50;75.50;;;;;;4930603;28;20024;-80
2021/11/10 12:14:25;;;;;;;6.65;3.95;;;23.80;70.30;;;;;;4939464;28;20068;-78
2021/11/10 12:17:04;;;;;;;11.00;4.05;;;24.30;65.90;;;;;;4931960;28;20494;-79
2021/11/10 12:19:34;;;;;;;5.03;3.78;;;24.10;65.10;;;;;;4940475;28;20019;-78
2021/11/10 12:22:18;;;;;;;4.43;3.70;;;25.60;62.90;;;;;;4948040;28;20042;-79
2021/11/10 12:24:58;;;;;;;4.65;3.60;;;27.40;58.60;;;;;;4935441;28;20074;-80
2021/11/10 12:27:37;;;;;;;6.68;3.80;;;28.10;54.80;;;;;;4932815;28;20131;-79
2021/11/10 12:30:23;;;;;;;4.43;3.50;;;28.20;53.90;;;;;;4934506;28;20371;-78
2021/11/10 12:33:05;;;;;;;13.45;3.80;;;28.40;53.10;;;;;;4937698;28;20027;-79
2021/11/10 12:35:49;;;;;;;8.27;4.33;;;29.10;52.10;;;;;;4936944;28;20024;-81
2021/11/10 12:38:21;;;;;;;4.97;3.78;;;30.00;50.10;;;;;;4937459;28;20036;-82
2021/11/10 12:41:01;;;;;;;6.95;3.80;;;30.70;48.50;;;;;;4941391;28;20042;-79
2021/11/10 12:43:37;;;;;;;3.88;3.13;;;31.40;47.70;;;;;;4936101;28;20165;-78
2021/11/10 12:46:05;;;;;;;5.03;4.03;;;31.60;46.50;;;;;;4937711;28;20046;-79
2021/11/10 12:48:31;;;;;;;5.85;3.67;;;31.80;45.70;;;;;;4941398;28;20027;-78
2021/11/10 12:51:34;;;;;;;3.90;3.50;;;31.10;46.20;;;;;;4937638;28;20026;-79
2021/11/10 12:54:06;;;;;;;4.80;3.55;;;30.40;46.80;;;;;;4959152;28;20035;-79
2021/11/10 12:56:55;;;;;;;4.72;3.20;;;30.30;46.60;;;;;;4934295;28;20024;-80